CXL weather

Calexico International Airport
Calexico, California, United States

Public forecast

Using degrees Fahrenheit for public forecast. Weather courtesy of forecast.io.

METAR (pilot weather report)

Closest report is Imperial County Airport, 10.4 nm (19.3 km) NNW. Retrieved 2019/05/23 11:53 UTC (56 minutes ago):

KIPL 231153Z AUTO 28010KT 10SM CLR 14/06 A2981 RMK AO2 SLP095 T01390056 10156 20122 53016

TAF (pilot weather forecast)

Closest forecast is Imperial County Airport, 10.4 nm (19.3 km) NNW. Retrieved 2019/05/23 12:42 UTC (7 minutes ago):

TAF KIPL 231139Z 2312/2412 26010KT P6SM SCT150 FM232000 25010G18KT P6SM FEW090 FM240200 26007KT P6SM SKC